sensor_id;sensor_type;location;lat;lon;timestamp;pressure;altitude;pressure_sealevel;temperature;humidity
45872;BME280;32333;55.844;-3.210;2023-03-21T00:01:51;98374.55;;;10.53;100.00
45872;BME280;32333;55.844;-3.210;2023-03-21T00:04:19;98369.58;;;9.65;100.00
45872;BME280;32333;55.844;-3.210;2023-03-21T00:06:48;98362.39;;;9.87;100.00
45872;BME280;32333;55.844;-3.210;2023-03-21T00:09:16;98358.52;;;9.52;100.00
45872;BME280;32333;55.844;-3.210;2023-03-21T00:11:43;98353.43;;;8.91;100.00
45872;BME280;32333;55.844;-3.210;2023-03-21T00:14:35;98349.35;;;9.62;100.00
45872;BME280;32333;55.844;-3.210;2023-03-21T00:17:03;98340.99;;;10.66;100.00
45872;BME280;32333;55.844;-3.210;2023-03-21T00:19:31;98336.53;;;10.90;100.00
45872;BME280;32333;55.844;-3.210;2023-03-21T00:22:00;98332.54;;;11.42;100.00
45872;BME280;32333;55.844;-3.210;2023-03-21T00:24:27;98324.53;;;10.95;100.00
45872;BME280;32333;55.844;-3.210;2023-03-21T00:26:54;98320.39;;;11.04;100.00
45872;BME280;32333;55.844;-3.210;2023-03-21T00:29:23;98318.31;;;10.05;100.00
45872;BME280;32333;55.844;-3.210;2023-03-21T00:31:50;98317.47;;;9.97;100.00
45872;BME280;32333;55.844;-3.210;2023-03-21T00:34:17;98319.08;;;9.61;100.00
45872;BME280;32333;55.844;-3.210;2023-03-21T00:36:46;98312.42;;;9.67;100.00
45872;BME280;32333;55.844;-3.210;2023-03-21T00:39:13;98306.19;;;8.80;100.00
45872;BME280;32333;55.844;-3.210;2023-03-21T00:44:36;98297.84;;;9.09;100.00
45872;BME280;32333;55.844;-3.210;2023-03-21T00:47:03;98295.65;;;8.60;100.00
45872;BME280;32333;55.844;-3.210;2023-03-21T00:49:31;98292.18;;;8.28;100.00
45872;BME280;32333;55.844;-3.210;2023-03-21T00:51:59;98298.37;;;8.11;100.00
45872;BME280;32333;55.844;-3.210;2023-03-21T00:54:27;98289.23;;;8.63;100.00
45872;BME280;32333;55.844;-3.210;2023-03-21T00:56:55;98286.46;;;7.53;100.00
45872;BME280;32333;55.844;-3.210;2023-03-21T00:59:23;98284.36;;;8.04;100.00
45872;BME280;32333;55.844;-3.210;2023-03-21T01:01:50;98270.96;;;8.06;100.00
45872;BME280;32333;55.844;-3.210;2023-03-21T01:04:18;98261.75;;;7.77;100.00
45872;BME280;32333;55.844;-3.210;2023-03-21T01:06:47;98256.44;;;7.78;100.00
45872;BME280;32333;55.844;-3.210;2023-03-21T01:09:16;98250.62;;;8.21;100.00
45872;BME280;32333;55.844;-3.210;2023-03-21T01:11:46;98246.09;;;8.44;100.00
45872;BME280;32333;55.844;-3.210;2023-03-21T01:14:34;98246.28;;;7.75;100.00
45872;BME280;32333;55.844;-3.210;2023-03-21T01:17:02;98243.60;;;7.82;100.00
45872;BME280;32333;55.844;-3.210;2023-03-21T01:19:30;98237.25;;;7.78;100.00
45872;BME280;32333;55.844;-3.210;2023-03-21T01:21:57;98228.31;;;7.92;100.00
45872;BME280;32333;55.844;-3.210;2023-03-21T01:24:25;98224.77;;;7.37;100.00
45872;BME280;32333;55.844;-3.210;2023-03-21T01:26:52;98224.53;;;7.51;100.00
45872;BME280;32333;55.844;-3.210;2023-03-21T01:29:20;98224.87;;;7.65;100.00
45872;BME280;32333;55.844;-3.210;2023-03-21T01:31:47;98226.23;;;6.66;100.00
45872;BME280;32333;55.844;-3.210;2023-03-21T01:34:14;98226.36;;;7.16;100.00
45872;BME280;32333;55.844;-3.210;2023-03-21T01:36:42;98219.92;;;6.69;100.00
45872;BME280;32333;55.844;-3.210;2023-03-21T01:39:10;98210.16;;;6.90;100.00
45872;BME280;32333;55.844;-3.210;2023-03-21T01:41:39;98201.56;;;7.29;100.00
45872;BME280;32333;55.844;-3.210;2023-03-21T01:44:52;98183.76;;;7.62;100.00
45872;BME280;32333;55.844;-3.210;2023-03-21T01:47:20;98178.43;;;7.63;100.00
45872;BME280;32333;55.844;-3.210;2023-03-21T01:49:50;98173.25;;;7.58;100.00
45872;BME280;32333;55.844;-3.210;2023-03-21T01:52:20;98167.18;;;7.68;100.00
45872;BME280;32333;55.844;-3.210;2023-03-21T01:54:49;98157.59;;;7.99;100.00
45872;BME280;32333;55.844;-3.210;2023-03-21T01:57:22;98159.92;;;7.31;100.00
45872;BME280;32333;55.844;-3.210;2023-03-21T01:59:52;98159.91;;;7.40;100.00
45872;BME280;32333;55.844;-3.210;2023-03-21T02:02:23;98156.86;;;7.72;100.00
45872;BME280;32333;55.844;-3.210;2023-03-21T02:04:52;98154.75;;;7.75;100.00
45872;BME280;32333;55.844;-3.210;2023-03-21T02:07:24;98157.90;;;7.54;100.00
45872;BME280;32333;55.844;-3.210;2023-03-21T02:09:54;98151.51;;;8.37;100.00
45872;BME280;32333;55.844;-3.210;2023-03-21T02:14:36;98148.46;;;8.05;100.00
45872;BME280;32333;55.844;-3.210;2023-03-21T02:17:11;98147.27;;;7.19;100.00
45872;BME280;32333;55.844;-3.210;2023-03-21T02:20:05;98148.50;;;7.16;100.00
45872;BME280;32333;55.844;-3.210;2023-03-21T02:22:53;98150.00;;;7.17;100.00
45872;BME280;32333;55.844;-3.210;2023-03-21T02:25:45;98146.60;;;7.67;100.00
45872;BME280;32333;55.844;-3.210;2023-03-21T02:28:24;98144.79;;;7.69;100.00
45872;BME280;32333;55.844;-3.210;2023-03-21T02:31:13;98142.27;;;8.04;100.00
45872;BME280;32333;55.844;-3.210;2023-03-21T02:34:27;98141.48;;;7.82;100.00
45872;BME280;32333;55.844;-3.210;2023-03-21T02:37:11;98144.63;;;8.26;100.00
45872;BME280;32333;55.844;-3.210;2023-03-21T02:39:53;98144.89;;;8.39;100.00
45872;BME280;32333;55.844;-3.210;2023-03-21T02:44:41;98144.79;;;8.24;100.00
45872;BME280;32333;55.844;-3.210;2023-03-21T02:47:13;98144.46;;;8.40;100.00
45872;BME280;32333;55.844;-3.210;2023-03-21T02:49:43;98147.67;;;8.39;100.00
45872;BME280;32333;55.844;-3.210;2023-03-21T02:52:17;98156.51;;;8.59;100.00
45872;BME280;32333;55.844;-3.210;2023-03-21T02:54:45;98151.29;;;8.80;100.00
45872;BME280;32333;55.844;-3.210;2023-03-21T02:57:15;98144.22;;;8.53;100.00
45872;BME280;32333;55.844;-3.210;2023-03-21T02:59:45;98141.75;;;8.79;100.00
45872;BME280;32333;55.844;-3.210;2023-03-21T03:02:13;98140.36;;;8.27;100.00
45872;BME280;32333;55.844;-3.210;2023-03-21T03:04:41;98140.29;;;7.54;100.00
45872;BME280;32333;55.844;-3.210;2023-03-21T03:07:18;98134.01;;;8.42;100.00
45872;BME280;32333;55.844;-3.210;2023-03-21T03:09:58;98136.11;;;8.32;100.00
45872;BME280;32333;55.844;-3.210;2023-03-21T03:14:45;98131.29;;;8.44;100.00
45872;BME280;32333;55.844;-3.210;2023-03-21T03:17:21;98121.05;;;9.40;100.00
45872;BME280;32333;55.844;-3.210;2023-03-21T03:20:01;98120.67;;;8.21;100.00
45872;BME280;32333;55.844;-3.210;2023-03-21T03:22:39;98120.82;;;8.93;100.00
45872;BME280;32333;55.844;-3.210;2023-03-21T03:25:09;98115.20;;;8.48;100.00
45872;BME280;32333;55.844;-3.210;2023-03-21T03:27:41;98113.63;;;8.17;100.00
45872;BME280;32333;55.844;-3.210;2023-03-21T03:30:12;98112.87;;;8.66;100.00
45872;BME280;32333;55.844;-3.210;2023-03-21T03:32:45;98107.35;;;8.82;100.00
45872;BME280;32333;55.844;-3.210;2023-03-21T03:35:16;98103.29;;;7.96;100.00
45872;BME280;32333;55.844;-3.210;2023-03-21T03:37:47;98099.79;;;8.01;100.00
45872;BME280;32333;55.844;-3.210;2023-03-21T03:40:20;98102.93;;;7.36;100.00
45872;BME280;32333;55.844;-3.210;2023-03-21T03:44:36;98089.99;;;7.87;100.00
45872;BME280;32333;55.844;-3.210;2023-03-21T03:47:07;98085.45;;;8.70;100.00
45872;BME280;32333;55.844;-3.210;2023-03-21T03:49:38;98080.98;;;8.09;100.00
45872;BME280;32333;55.844;-3.210;2023-03-21T03:52:12;98077.09;;;8.02;100.00
45872;BME280;32333;55.844;-3.210;2023-03-21T03:54:45;98074.43;;;8.35;100.00
45872;BME280;32333;55.844;-3.210;2023-03-21T03:57:15;98073.61;;;8.02;100.00
45872;BME280;32333;55.844;-3.210;2023-03-21T03:59:44;98065.34;;;8.60;100.00
45872;BME280;32333;55.844;-3.210;2023-03-21T04:02:13;98064.78;;;8.46;100.00
45872;BME280;32333;55.844;-3.210;2023-03-21T04:04:42;98065.83;;;8.50;100.00
45872;BME280;32333;55.844;-3.210;2023-03-21T04:07:10;98069.04;;;7.68;100.00
45872;BME280;32333;55.844;-3.210;2023-03-21T04:09:38;98066.83;;;7.22;100.00
45872;BME280;32333;55.844;-3.210;2023-03-21T04:14:35;98064.58;;;7.51;100.00
45872;BME280;32333;55.844;-3.210;2023-03-21T04:17:03;98059.35;;;7.10;100.00
45872;BME280;32333;55.844;-3.210;2023-03-21T04:19:30;98050.20;;;7.21;100.00
45872;BME280;32333;55.844;-3.210;2023-03-21T04:21:59;98045.58;;;6.93;100.00
45872;BME280;32333;55.844;-3.210;2023-03-21T04:24:26;98050.80;;;6.89;100.00
45872;BME280;32333;55.844;-3.210;2023-03-21T04:26:53;98052.35;;;7.15;100.00
45872;BME280;32333;55.844;-3.210;2023-03-21T04:29:20;98043.85;;;7.90;100.00
45872;BME280;32333;55.844;-3.210;2023-03-21T04:31:48;98050.39;;;7.22;100.00
45872;BME280;32333;55.844;-3.210;2023-03-21T04:34:15;98046.53;;;7.43;100.00
45872;BME280;32333;55.844;-3.210;2023-03-21T04:36:43;98046.84;;;7.62;100.00
45872;BME280;32333;55.844;-3.210;2023-03-21T04:39:11;98038.26;;;7.51;100.00
45872;BME280;32333;55.844;-3.210;2023-03-21T04:41:40;98032.57;;;7.18;100.00
45872;BME280;32333;55.844;-3.210;2023-03-21T04:44:36;98033.10;;;7.37;100.00
45872;BME280;32333;55.844;-3.210;2023-03-21T04:47:03;98029.69;;;7.93;100.00
45872;BME280;32333;55.844;-3.210;2023-03-21T04:49:30;98026.02;;;7.45;100.00
45872;BME280;32333;55.844;-3.210;2023-03-21T04:51:59;98017.25;;;6.99;100.00
45872;BME280;32333;55.844;-3.210;2023-03-21T04:54:26;98014.68;;;7.40;100.00
45872;BME280;32333;55.844;-3.210;2023-03-21T04:56:53;98019.33;;;7.30;100.00
45872;BME280;32333;55.844;-3.210;2023-03-21T04:59:21;98021.58;;;7.38;100.00
45872;BME280;32333;55.844;-3.210;2023-03-21T05:01:48;98019.70;;;7.10;100.00
45872;BME280;32333;55.844;-3.210;2023-03-21T05:04:16;98019.80;;;7.29;100.00
45872;BME280;32333;55.844;-3.210;2023-03-21T05:06:45;98018.85;;;7.37;100.00
45872;BME280;32333;55.844;-3.210;2023-03-21T05:09:13;98018.56;;;6.91;100.00
45872;BME280;32333;55.844;-3.210;2023-03-21T05:11:40;98011.58;;;6.77;100.00
45872;BME280;32333;55.844;-3.210;2023-03-21T05:14:35;98001.86;;;7.27;100.00
45872;BME280;32333;55.844;-3.210;2023-03-21T05:17:03;97993.75;;;7.50;100.00
45872;BME280;32333;55.844;-3.210;2023-03-21T05:19:31;97990.61;;;7.09;100.00
45872;BME280;32333;55.844;-3.210;2023-03-21T05:21:59;97997.63;;;7.63;100.00
45872;BME280;32333;55.844;-3.210;2023-03-21T05:24:27;97994.98;;;7.51;100.00
45872;BME280;32333;55.844;-3.210;2023-03-21T05:26:54;97989.44;;;8.05;100.00
45872;BME280;32333;55.844;-3.210;2023-03-21T05:29:23;97995.42;;;6.95;100.00
45872;BME280;32333;55.844;-3.210;2023-03-21T05:31:50;97993.23;;;7.35;100.00
45872;BME280;32333;55.844;-3.210;2023-03-21T05:34:17;97993.11;;;7.39;100.00
45872;BME280;32333;55.844;-3.210;2023-03-21T05:36:45;97992.77;;;7.64;100.00
45872;BME280;32333;55.844;-3.210;2023-03-21T05:39:14;97984.30;;;7.48;100.00
45872;BME280;32333;55.844;-3.210;2023-03-21T05:41:41;97984.71;;;6.75;100.00
45872;BME280;32333;55.844;-3.210;2023-03-21T05:44:36;97980.73;;;7.27;100.00
45872;BME280;32333;55.844;-3.210;2023-03-21T05:47:03;97979.82;;;7.59;100.00
45872;BME280;32333;55.844;-3.210;2023-03-21T05:49:30;97978.43;;;6.98;100.00
45872;BME280;32333;55.844;-3.210;2023-03-21T05:51:59;97978.97;;;6.91;100.00
45872;BME280;32333;55.844;-3.210;2023-03-21T05:54:26;97974.11;;;7.25;100.00
45872;BME280;32333;55.844;-3.210;2023-03-21T05:56:54;97974.17;;;6.86;100.00
45872;BME280;32333;55.844;-3.210;2023-03-21T05:59:21;97970.04;;;6.64;100.00
45872;BME280;32333;55.844;-3.210;2023-03-21T06:01:49;97969.84;;;7.60;100.00
45872;BME280;32333;55.844;-3.210;2023-03-21T06:04:16;97971.02;;;6.79;100.00
45872;BME280;32333;55.844;-3.210;2023-03-21T06:06:43;97972.68;;;6.82;100.00
45872;BME280;32333;55.844;-3.210;2023-03-21T06:09:12;97972.47;;;6.80;100.00
45872;BME280;32333;55.844;-3.210;2023-03-21T06:11:45;97976.77;;;7.02;100.00
45872;BME280;32333;55.844;-3.210;2023-03-21T06:14:36;97984.56;;;6.53;100.00
45872;BME280;32333;55.844;-3.210;2023-03-21T06:17:03;97983.07;;;6.62;100.00
45872;BME280;32333;55.844;-3.210;2023-03-21T06:19:30;97985.84;;;7.07;100.00
45872;BME280;32333;55.844;-3.210;2023-03-21T06:21:59;97979.17;;;7.09;100.00
45872;BME280;32333;55.844;-3.210;2023-03-21T06:24:26;97982.70;;;7.13;100.00
45872;BME280;32333;55.844;-3.210;2023-03-21T06:26:53;97981.24;;;7.16;100.00
45872;BME280;32333;55.844;-3.210;2023-03-21T06:29:21;97976.54;;;7.19;100.00
45872;BME280;32333;55.844;-3.210;2023-03-21T06:31:48;97975.54;;;6.84;100.00
45872;BME280;32333;55.844;-3.210;2023-03-21T06:34:16;97978.62;;;7.22;100.00
45872;BME280;32333;55.844;-3.210;2023-03-21T06:36:43;97968.57;;;7.51;100.00
45872;BME280;32333;55.844;-3.210;2023-03-21T06:39:11;97963.39;;;7.19;100.00
45872;BME280;32333;55.844;-3.210;2023-03-21T06:41:39;97959.04;;;7.87;100.00
45872;BME280;32333;55.844;-3.210;2023-03-21T06:44:35;97963.70;;;7.51;100.00
45872;BME280;32333;55.844;-3.210;2023-03-21T06:47:02;97965.61;;;7.78;100.00
45872;BME280;32333;55.844;-3.210;2023-03-21T06:49:30;97971.53;;;7.92;100.00
45872;BME280;32333;55.844;-3.210;2023-03-21T06:51:58;97965.61;;;7.14;100.00
45872;BME280;32333;55.844;-3.210;2023-03-21T06:54:25;97964.30;;;8.04;100.00
45872;BME280;32333;55.844;-3.210;2023-03-21T06:56:53;97970.47;;;8.02;100.00
45872;BME280;32333;55.844;-3.210;2023-03-21T06:59:20;97974.10;;;7.47;100.00
45872;BME280;32333;55.844;-3.210;2023-03-21T07:01:48;97981.12;;;7.97;100.00
45872;BME280;32333;55.844;-3.210;2023-03-21T07:04:15;97984.39;;;7.31;100.00
45872;BME280;32333;55.844;-3.210;2023-03-21T07:06:42;97984.11;;;7.54;100.00
45872;BME280;32333;55.844;-3.210;2023-03-21T07:09:11;97987.76;;;6.79;100.00
45872;BME280;32333;55.844;-3.210;2023-03-21T07:11:38;97985.39;;;7.21;100.00
45872;BME280;32333;55.844;-3.210;2023-03-21T07:14:36;97985.61;;;7.62;100.00
45872;BME280;32333;55.844;-3.210;2023-03-21T07:17:03;97980.52;;;7.55;100.00
45872;BME280;32333;55.844;-3.210;2023-03-21T07:19:31;97975.37;;;7.66;100.00
45872;BME280;32333;55.844;-3.210;2023-03-21T07:21:59;97968.24;;;7.57;100.00
45872;BME280;32333;55.844;-3.210;2023-03-21T07:24:26;97965.13;;;8.07;100.00
45872;BME280;32333;55.844;-3.210;2023-03-21T07:26:54;97964.70;;;7.60;100.00
45872;BME280;32333;55.844;-3.210;2023-03-21T07:29:21;97961.41;;;7.97;100.00
45872;BME280;32333;55.844;-3.210;2023-03-21T07:31:48;97959.18;;;7.81;100.00
45872;BME280;32333;55.844;-3.210;2023-03-21T07:34:16;97963.81;;;7.47;100.00
45872;BME280;32333;55.844;-3.210;2023-03-21T07:36:43;97969.38;;;7.96;100.00
45872;BME280;32333;55.844;-3.210;2023-03-21T07:39:11;97974.70;;;8.17;100.00
45872;BME280;32333;55.844;-3.210;2023-03-21T07:41:39;97977.99;;;7.24;100.00
45872;BME280;32333;55.844;-3.210;2023-03-21T07:44:35;97975.69;;;8.32;100.00
45872;BME280;32333;55.844;-3.210;2023-03-21T07:47:03;97977.17;;;8.10;100.00
45872;BME280;32333;55.844;-3.210;2023-03-21T07:49:32;97975.12;;;7.87;100.00
45872;BME280;32333;55.844;-3.210;2023-03-21T07:52:00;97976.67;;;7.90;100.00
45872;BME280;32333;55.844;-3.210;2023-03-21T07:54:27;97976.29;;;8.33;100.00
45872;BME280;32333;55.844;-3.210;2023-03-21T07:56:56;97978.80;;;7.84;100.00
45872;BME280;32333;55.844;-3.210;2023-03-21T07:59:23;97977.70;;;7.32;100.00
45872;BME280;32333;55.844;-3.210;2023-03-21T08:01:51;97971.20;;;7.98;100.00
45872;BME280;32333;55.844;-3.210;2023-03-21T08:04:18;97972.25;;;8.31;100.00
45872;BME280;32333;55.844;-3.210;2023-03-21T08:06:46;97966.27;;;8.21;100.00
45872;BME280;32333;55.844;-3.210;2023-03-21T08:09:14;97970.29;;;8.06;100.00
45872;BME280;32333;55.844;-3.210;2023-03-21T08:11:41;97964.21;;;8.14;100.00
45872;BME280;32333;55.844;-3.210;2023-03-21T08:14:36;97963.64;;;7.86;100.00
45872;BME280;32333;55.844;-3.210;2023-03-21T08:17:05;97967.33;;;7.56;100.00
45872;BME280;32333;55.844;-3.210;2023-03-21T08:19:32;97959.59;;;7.69;100.00
45872;BME280;32333;55.844;-3.210;2023-03-21T08:21:59;97959.01;;;8.24;100.00
45872;BME280;32333;55.844;-3.210;2023-03-21T08:24:27;97958.53;;;7.93;100.00
45872;BME280;32333;55.844;-3.210;2023-03-21T08:26:55;97948.34;;;8.66;100.00
45872;BME280;32333;55.844;-3.210;2023-03-21T08:29:23;97950.32;;;9.42;100.00
45872;BME280;32333;55.844;-3.210;2023-03-21T08:31:51;97947.69;;;8.75;100.00
45872;BME280;32333;55.844;-3.210;2023-03-21T08:34:18;97942.88;;;8.83;100.00
45872;BME280;32333;55.844;-3.210;2023-03-21T08:36:46;97941.66;;;8.78;100.00
45872;BME280;32333;55.844;-3.210;2023-03-21T08:39:13;97937.45;;;8.57;100.00
45872;BME280;32333;55.844;-3.210;2023-03-21T08:41:41;97935.47;;;8.66;100.00
45872;BME280;32333;55.844;-3.210;2023-03-21T08:44:36;97936.86;;;9.05;100.00
45872;BME280;32333;55.844;-3.210;2023-03-21T08:47:03;97933.84;;;9.55;100.00
45872;BME280;32333;55.844;-3.210;2023-03-21T08:49:31;97934.52;;;9.82;100.00
45872;BME280;32333;55.844;-3.210;2023-03-21T08:52:00;97927.83;;;8.74;100.00
45872;BME280;32333;55.844;-3.210;2023-03-21T08:54:27;97924.30;;;8.67;100.00
45872;BME280;32333;55.844;-3.210;2023-03-21T08:56:54;97919.91;;;9.48;100.00
45872;BME280;32333;55.844;-3.210;2023-03-21T08:59:22;97915.88;;;8.37;100.00
45872;BME280;32333;55.844;-3.210;2023-03-21T09:01:50;97915.21;;;9.24;100.00
45872;BME280;32333;55.844;-3.210;2023-03-21T09:04:17;97912.14;;;8.80;100.00
45872;BME280;32333;55.844;-3.210;2023-03-21T09:06:44;97908.39;;;8.81;100.00
45872;BME280;32333;55.844;-3.210;2023-03-21T09:09:12;97898.98;;;9.24;100.00
45872;BME280;32333;55.844;-3.210;2023-03-21T09:11:40;97901.60;;;8.96;100.00
45872;BME280;32333;55.844;-3.210;2023-03-21T09:14:36;97898.51;;;8.78;100.00
45872;BME280;32333;55.844;-3.210;2023-03-21T09:17:03;97891.89;;;8.92;100.00
45872;BME280;32333;55.844;-3.210;2023-03-21T09:19:30;97890.56;;;9.44;100.00
45872;BME280;32333;55.844;-3.210;2023-03-21T09:21:59;97890.72;;;9.41;100.00
45872;BME280;32333;55.844;-3.210;2023-03-21T09:24:26;97894.30;;;9.53;100.00
45872;BME280;32333;55.844;-3.210;2023-03-21T09:26:53;97896.95;;;9.35;100.00
45872;BME280;32333;55.844;-3.210;2023-03-21T09:29:20;97895.19;;;8.83;100.00
45872;BME280;32333;55.844;-3.210;2023-03-21T09:31:48;97892.01;;;10.11;100.00
45872;BME280;32333;55.844;-3.210;2023-03-21T09:34:15;97886.87;;;10.53;100.00
45872;BME280;32333;55.844;-3.210;2023-03-21T09:36:42;97880.77;;;10.13;100.00
45872;BME280;32333;55.844;-3.210;2023-03-21T09:39:11;97878.15;;;9.41;100.00
45872;BME280;32333;55.844;-3.210;2023-03-21T09:41:49;97867.20;;;10.68;100.00
45872;BME280;32333;55.844;-3.210;2023-03-21T09:44:46;97870.81;;;10.72;100.00
45872;BME280;32333;55.844;-3.210;2023-03-21T09:47:20;97872.22;;;11.48;100.00
45872;BME280;32333;55.844;-3.210;2023-03-21T09:49:51;97864.17;;;11.50;100.00
45872;BME280;32333;55.844;-3.210;2023-03-21T09:52:23;97870.37;;;12.58;100.00
45872;BME280;32333;55.844;-3.210;2023-03-21T09:54:52;97870.40;;;11.78;100.00
45872;BME280;32333;55.844;-3.210;2023-03-21T09:57:27;97868.63;;;12.41;100.00
45872;BME280;32333;55.844;-3.210;2023-03-21T09:59:57;97864.49;;;11.13;100.00
45872;BME280;32333;55.844;-3.210;2023-03-21T10:02:35;97860.82;;;11.57;100.00
45872;BME280;32333;55.844;-3.210;2023-03-21T10:05:11;97855.63;;;10.92;100.00
45872;BME280;32333;55.844;-3.210;2023-03-21T10:07:42;97863.29;;;11.65;100.00
45872;BME280;32333;55.844;-3.210;2023-03-21T10:10:16;97854.49;;;10.68;100.00
45872;BME280;32333;55.844;-3.210;2023-03-21T10:14:38;97847.04;;;11.84;100.00
45872;BME280;32333;55.844;-3.210;2023-03-21T10:17:20;97846.00;;;10.51;100.00
45872;BME280;32333;55.844;-3.210;2023-03-21T10:19:55;97848.87;;;11.48;100.00
45872;BME280;32333;55.844;-3.210;2023-03-21T10:22:28;97853.13;;;11.56;100.00
45872;BME280;32333;55.844;-3.210;2023-03-21T10:24:55;97851.53;;;11.42;100.00
45872;BME280;32333;55.844;-3.210;2023-03-21T10:27:22;97845.55;;;10.88;100.00
45872;BME280;32333;55.844;-3.210;2023-03-21T10:29:51;97844.99;;;9.22;100.00
45872;BME280;32333;55.844;-3.210;2023-03-21T10:32:18;97835.31;;;10.39;100.00
45872;BME280;32333;55.844;-3.210;2023-03-21T10:34:48;97830.57;;;10.24;100.00
45872;BME280;32333;55.844;-3.210;2023-03-21T10:37:17;97835.78;;;11.29;100.00
45872;BME280;32333;55.844;-3.210;2023-03-21T10:39:47;97829.81;;;11.39;100.00
45872;BME280;32333;55.844;-3.210;2023-03-21T10:44:35;97823.31;;;12.29;100.00
45872;BME280;32333;55.844;-3.210;2023-03-21T10:47:05;97824.19;;;11.71;100.00
45872;BME280;32333;55.844;-3.210;2023-03-21T10:49:36;97825.82;;;11.00;100.00
45872;BME280;32333;55.844;-3.210;2023-03-21T10:52:06;97822.48;;;10.54;100.00
45872;BME280;32333;55.844;-3.210;2023-03-21T10:54:34;97821.44;;;10.93;100.00
45872;BME280;32333;55.844;-3.210;2023-03-21T10:57:04;97815.92;;;11.45;100.00
45872;BME280;32333;55.844;-3.210;2023-03-21T10:59:37;97813.74;;;12.05;100.00
45872;BME280;32333;55.844;-3.210;2023-03-21T11:02:13;97808.07;;;11.64;100.00
45872;BME280;32333;55.844;-3.210;2023-03-21T11:04:43;97803.28;;;11.31;100.00
45872;BME280;32333;55.844;-3.210;2023-03-21T11:07:13;97799.03;;;11.94;100.00
45872;BME280;32333;55.844;-3.210;2023-03-21T11:09:45;97792.24;;;12.27;100.00
45872;BME280;32333;55.844;-3.210;2023-03-21T11:14:37;97785.86;;;11.78;100.00
45872;BME280;32333;55.844;-3.210;2023-03-21T11:17:20;97787.05;;;12.69;100.00
45872;BME280;32333;55.844;-3.210;2023-03-21T11:19:49;97786.09;;;12.44;100.00
45872;BME280;32333;55.844;-3.210;2023-03-21T11:22:19;97783.36;;;11.96;100.00
45872;BME280;32333;55.844;-3.210;2023-03-21T11:24:49;97788.05;;;12.59;100.00
45872;BME280;32333;55.844;-3.210;2023-03-21T11:27:17;97790.52;;;12.00;100.00
45872;BME280;32333;55.844;-3.210;2023-03-21T11:29:47;97788.92;;;10.95;100.00
45872;BME280;32333;55.844;-3.210;2023-03-21T11:32:20;97788.51;;;11.54;100.00
45872;BME280;32333;55.844;-3.210;2023-03-21T11:34:52;97796.54;;;11.93;100.00
45872;BME280;32333;55.844;-3.210;2023-03-21T11:37:25;97797.69;;;11.09;100.00
45872;BME280;32333;55.844;-3.210;2023-03-21T11:39:56;97795.89;;;11.11;100.00
45872;BME280;32333;55.844;-3.210;2023-03-21T11:44:43;97781.00;;;11.05;100.00
45872;BME280;32333;55.844;-3.210;2023-03-21T11:47:10;97780.52;;;11.31;100.00
45872;BME280;32333;55.844;-3.210;2023-03-21T11:49:38;97783.33;;;10.99;100.00
45872;BME280;32333;55.844;-3.210;2023-03-21T11:52:14;97778.17;;;10.77;100.00
45872;BME280;32333;55.844;-3.210;2023-03-21T11:54:59;97771.73;;;10.94;100.00
45872;BME280;32333;55.844;-3.210;2023-03-21T11:57:34;97767.13;;;10.40;100.00
45872;BME280;32333;55.844;-3.210;2023-03-21T12:00:09;97760.17;;;10.95;100.00
45872;BME280;32333;55.844;-3.210;2023-03-21T12:02:57;97756.54;;;10.39;100.00
45872;BME280;32333;55.844;-3.210;2023-03-21T12:05:32;97754.67;;;11.44;100.00
45872;BME280;32333;55.844;-3.210;2023-03-21T12:08:08;97751.66;;;10.86;100.00
45872;BME280;32333;55.844;-3.210;2023-03-21T12:10:44;97750.05;;;10.89;100.00
45872;BME280;32333;55.844;-3.210;2023-03-21T12:14:43;97749.95;;;10.92;100.00
45872;BME280;32333;55.844;-3.210;2023-03-21T12:17:24;97747.87;;;11.31;100.00
45872;BME280;32333;55.844;-3.210;2023-03-21T12:20:06;97750.20;;;11.29;100.00
45872;BME280;32333;55.844;-3.210;2023-03-21T12:22:48;97747.52;;;11.09;100.00
45872;BME280;32333;55.844;-3.210;2023-03-21T12:25:23;97755.58;;;11.06;100.00
45872;BME280;32333;55.844;-3.210;2023-03-21T12:28:03;97756.96;;;10.86;100.00
45872;BME280;32333;55.844;-3.210;2023-03-21T12:30:43;97755.89;;;10.46;100.00
45872;BME280;32333;55.844;-3.210;2023-03-21T12:33:24;97751.65;;;9.88;100.00
45872;BME280;32333;55.844;-3.210;2023-03-21T12:36:05;97751.69;;;10.69;100.00
45872;BME280;32333;55.844;-3.210;2023-03-21T12:38:40;97754.19;;;10.58;100.00
45872;BME280;32333;55.844;-3.210;2023-03-21T12:41:22;97753.55;;;11.12;100.00
45872;BME280;32333;55.844;-3.210;2023-03-21T12:44:38;97746.70;;;10.94;100.00
45872;BME280;32333;55.844;-3.210;2023-03-21T12:47:09;97748.51;;;11.40;100.00
45872;BME280;32333;55.844;-3.210;2023-03-21T12:49:41;97743.65;;;11.26;100.00
45872;BME280;32333;55.844;-3.210;2023-03-21T12:52:13;97736.20;;;11.04;100.00
45872;BME280;32333;55.844;-3.210;2023-03-21T12:54:46;97740.52;;;10.65;100.00
45872;BME280;32333;55.844;-3.210;2023-03-21T12:57:18;97728.32;;;11.28;100.00
45872;BME280;32333;55.844;-3.210;2023-03-21T12:59:51;97727.63;;;10.91;100.00
45872;BME280;32333;55.844;-3.210;2023-03-21T13:02:25;97729.66;;;12.11;100.00
45872;BME280;32333;55.844;-3.210;2023-03-21T13:05:02;97728.70;;;11.22;100.00
45872;BME280;32333;55.844;-3.210;2023-03-21T13:07:36;97731.63;;;10.20;100.00
45872;BME280;32333;55.844;-3.210;2023-03-21T13:10:13;97736.02;;;10.34;100.00
45872;BME280;32333;55.844;-3.210;2023-03-21T13:14:40;97734.05;;;11.58;100.00
45872;BME280;32333;55.844;-3.210;2023-03-21T13:17:15;97736.82;;;11.19;100.00
45872;BME280;32333;55.844;-3.210;2023-03-21T13:19:49;97736.33;;;10.80;100.00
45872;BME280;32333;55.844;-3.210;2023-03-21T13:22:24;97737.13;;;11.13;100.00
45872;BME280;32333;55.844;-3.210;2023-03-21T13:24:57;97739.56;;;10.21;100.00
45872;BME280;32333;55.844;-3.210;2023-03-21T13:27:28;97736.76;;;11.17;100.00
45872;BME280;32333;55.844;-3.210;2023-03-21T13:30:00;97728.79;;;10.82;100.00
45872;BME280;32333;55.844;-3.210;2023-03-21T13:32:30;97722.16;;;10.70;100.00
45872;BME280;32333;55.844;-3.210;2023-03-21T13:35:01;97716.20;;;11.09;100.00
45872;BME280;32333;55.844;-3.210;2023-03-21T13:37:32;97715.03;;;10.95;100.00